createdAt,value
2022-09-17T00:00:23.888Z,1.92
2022-09-17T00:01:27.337Z,2.22
2022-09-17T00:02:30.433Z,1.80
2022-09-17T00:03:34.520Z,1.83
2022-09-17T00:04:36.179Z,1.88
2022-09-17T00:05:38.577Z,2.28
2022-09-17T00:06:40.328Z,2.00
2022-09-17T00:07:42.351Z,1.77
2022-09-17T00:08:44.225Z,2.00
2022-09-17T00:09:46.028Z,1.70
2022-09-17T00:10:47.828Z,1.70
2022-09-17T00:11:49.740Z,2.10
2022-09-17T00:12:51.813Z,1.80
2022-09-17T00:13:54.935Z,1.73
2022-09-17T00:14:56.977Z,1.70
2022-09-17T00:15:58.888Z,1.83
2022-09-17T00:17:02.066Z,1.88
2022-09-17T00:18:04.209Z,1.55
2022-09-17T00:19:10.112Z,1.67
2022-09-17T00:20:12.057Z,1.63
2022-09-17T00:21:18.497Z,1.83
2022-09-17T00:22:20.195Z,2.05
2022-09-17T00:23:21.954Z,1.30
2022-09-17T00:24:23.697Z,1.52
2022-09-17T00:25:25.516Z,1.65
2022-09-17T00:26:28.838Z,1.60
2022-09-17T00:27:30.680Z,1.60
2022-09-17T00:28:32.785Z,1.85
2022-09-17T00:29:34.669Z,1.60
2022-09-17T00:30:43.201Z,1.50
2022-09-17T00:31:45.164Z,1.70
2022-09-17T00:32:48.443Z,1.33
2022-09-17T00:33:51.175Z,1.70
2022-09-17T00:34:52.989Z,1.40
2022-09-17T00:36:02.432Z,1.80
2022-09-17T00:37:04.496Z,1.40
2022-09-17T00:38:06.400Z,1.77
2022-09-17T00:39:10.987Z,1.65
2022-09-17T00:40:12.919Z,1.13
2022-09-17T00:41:15.025Z,1.20
2022-09-17T00:42:18.963Z,1.48
2022-09-17T00:43:42.991Z,1.45
2022-09-17T00:44:54.805Z,1.42
2022-09-17T00:45:56.743Z,1.48
2022-09-17T00:46:58.956Z,1.33
2022-09-17T00:48:03.101Z,1.42
2022-09-17T00:49:15.532Z,1.45
2022-09-17T00:50:29.340Z,1.10
2022-09-17T00:51:39.410Z,1.35
2022-09-17T00:52:48.105Z,1.33
2022-09-17T00:53:50.308Z,1.30
2022-09-17T00:55:02.812Z,1.27
2022-09-17T00:56:17.365Z,1.40
2022-09-17T00:57:19.573Z,1.20
2022-09-17T00:58:23.113Z,1.38
2022-09-17T00:59:25.786Z,1.27
2022-09-17T01:00:28.990Z,1.17
2022-09-17T01:01:31.819Z,1.38
2022-09-17T01:02:33.809Z,1.48
2022-09-17T01:03:35.622Z,1.10
2022-09-17T01:04:37.321Z,1.40
2022-09-17T01:06:14.364Z,1.05
2022-09-17T01:07:36.051Z,1.25
2022-09-17T01:08:55.725Z,1.30
2022-09-17T01:10:06.660Z,1.58
2022-09-17T01:11:33.037Z,1.20
2022-09-17T01:12:54.953Z,1.23
2022-09-17T01:14:13.085Z,1.42
2022-09-17T01:15:23.545Z,1.30
2022-09-17T01:16:36.692Z,1.70
2022-09-17T01:17:54.780Z,1.40
2022-09-17T01:19:15.019Z,1.42
2022-09-17T01:20:54.738Z,1.58
2022-09-17T01:22:31.872Z,1.50
2022-09-17T01:24:03.018Z,1.48
2022-09-17T01:25:24.962Z,1.90
2022-09-17T01:26:51.338Z,1.80
2022-09-17T01:27:58.703Z,1.83
2022-09-17T01:29:36.660Z,1.90
2022-09-17T01:30:39.085Z,1.80
2022-09-17T01:33:29.381Z,2.20
2022-09-17T01:34:40.975Z,2.05
2022-09-17T01:35:55.026Z,2.38
2022-09-17T01:37:04.890Z,2.63
2022-09-17T01:38:38.229Z,1.95
2022-09-17T01:39:52.822Z,2.00
2022-09-17T01:41:12.670Z,2.45
2022-09-17T01:42:25.914Z,2.58
2022-09-17T01:43:35.867Z,2.80
2022-09-17T01:45:01.541Z,2.00
2022-09-17T01:46:26.993Z,2.28
2022-09-17T01:47:43.827Z,2.25
2022-09-17T01:48:48.993Z,2.35
2022-09-17T01:49:55.199Z,2.65
2022-09-17T01:51:09.330Z,2.30
2022-09-17T01:52:15.161Z,2.50
2022-09-17T01:53:20.863Z,2.15
2022-09-17T01:54:37.170Z,2.72
2022-09-17T01:55:45.663Z,2.60
2022-09-17T01:57:12.979Z,2.70
2022-09-17T01:58:31.693Z,2.63
2022-09-17T02:00:15.994Z,3.17
2022-09-17T02:01:22.360Z,2.63
2022-09-17T02:02:41.717Z,2.60
2022-09-17T02:03:55.032Z,2.80
2022-09-17T02:05:08.907Z,3.20
2022-09-17T02:06:15.796Z,2.65
2022-09-17T02:07:22.887Z,2.75
2022-09-17T02:08:28.568Z,3.10
2022-09-17T02:09:43.669Z,2.83
2022-09-17T02:11:07.714Z,2.85
2022-09-17T02:12:15.807Z,3.38
2022-09-17T02:13:26.040Z,2.97
2022-09-17T02:14:35.474Z,2.83
2022-09-17T02:15:43.746Z,3.00
2022-09-17T02:16:55.427Z,3.25
2022-09-17T02:18:18.827Z,3.20
2022-09-17T02:19:27.823Z,3.17
2022-09-17T02:20:41.068Z,3.10
2022-09-17T02:21:48.724Z,3.45
2022-09-17T02:22:56.970Z,3.40
2022-09-17T02:24:14.753Z,3.30
2022-09-17T02:25:19.734Z,3.00
2022-09-17T02:26:22.950Z,3.30
2022-09-17T02:27:55.140Z,3.50
2022-09-17T02:29:07.874Z,3.40
2022-09-17T02:30:10.305Z,2.80
2022-09-17T02:31:12.908Z,2.97
2022-09-17T02:32:14.780Z,3.20
2022-09-17T02:33:16.585Z,2.80
2022-09-17T02:34:19.303Z,2.97
2022-09-17T02:35:21.682Z,3.10
2022-09-17T02:36:24.684Z,3.20
2022-09-17T02:37:27.678Z,2.90
2022-09-17T02:38:31.022Z,2.97
2022-09-17T02:39:33.317Z,3.17
2022-09-17T02:40:50.159Z,2.95
2022-09-17T02:42:05.037Z,3.35
2022-09-17T02:43:31.495Z,3.35
2022-09-17T02:45:04.402Z,2.80
2022-09-17T02:46:26.124Z,2.85
2022-09-17T02:48:05.064Z,2.72
2022-09-17T02:49:25.616Z,2.67
2022-09-17T02:50:33.145Z,3.08
2022-09-17T02:51:57.609Z,3.25
2022-09-17T02:53:05.032Z,2.88
2022-09-17T02:54:35.043Z,3.00
2022-09-17T02:55:46.532Z,3.03
2022-09-17T02:57:17.489Z,3.17
2022-09-17T02:58:32.103Z,3.10
2022-09-17T02:59:42.624Z,2.70
2022-09-17T03:00:45.715Z,2.50
2022-09-17T03:01:59.200Z,2.40
2022-09-17T03:03:13.556Z,2.55
2022-09-17T03:04:17.945Z,2.83
2022-09-17T03:05:21.435Z,2.88
2022-09-17T03:06:23.671Z,2.47
2022-09-17T03:07:25.864Z,2.72
2022-09-17T03:08:34.553Z,2.83
2022-09-17T03:09:36.503Z,2.85
2022-09-17T03:10:38.787Z,2.95
2022-09-17T03:11:40.864Z,2.70
2022-09-17T03:12:42.821Z,3.10
2022-09-17T03:13:44.695Z,3.40
2022-09-17T03:14:46.459Z,2.70
2022-09-17T03:15:48.228Z,3.20
2022-09-17T03:16:50.059Z,3.15
2022-09-17T03:17:53.525Z,2.75
2022-09-17T03:18:55.739Z,3.05
2022-09-17T03:19:57.775Z,3.25
2022-09-17T03:20:59.943Z,2.95
2022-09-17T03:22:01.653Z,3.33
2022-09-17T03:23:03.494Z,3.03
2022-09-17T03:24:05.364Z,3.10
2022-09-17T03:25:07.596Z,3.15
2022-09-17T03:26:09.376Z,3.20
2022-09-17T03:27:11.073Z,3.20
2022-09-17T03:28:13.144Z,2.88
2022-09-17T03:29:15.180Z,3.22
2022-09-17T03:30:17.055Z,2.95
2022-09-17T03:31:18.798Z,3.13
2022-09-17T03:32:20.589Z,3.20
2022-09-17T03:33:22.554Z,3.45
2022-09-17T03:34:24.421Z,3.33
2022-09-17T03:35:26.330Z,3.30
2022-09-17T03:36:28.615Z,3.22
2022-09-17T03:37:33.209Z,3.50
2022-09-17T03:38:35.170Z,3.50
2022-09-17T03:39:37.032Z,3.17
2022-09-17T03:40:40.394Z,3.17
2022-09-17T03:41:42.053Z,3.58
2022-09-17T03:42:43.730Z,3.80
2022-09-17T03:43:45.609Z,3.42
2022-09-17T03:44:47.349Z,3.47
2022-09-17T03:45:49.212Z,3.38
2022-09-17T03:46:51.222Z,3.47
2022-09-17T03:47:53.040Z,3.13
2022-09-17T03:48:55.025Z,3.60
2022-09-17T03:49:56.864Z,3.30
2022-09-17T03:50:58.674Z,3.30
2022-09-17T03:52:00.567Z,3.42
2022-09-17T03:53:02.617Z,3.53
2022-09-17T03:54:04.680Z,3.60
2022-09-17T03:55:07.110Z,3.80
2022-09-17T03:56:09.098Z,3.60
2022-09-17T03:57:11.102Z,3.78
2022-09-17T03:58:12.992Z,3.72
2022-09-17T03:59:14.912Z,3.50
2022-09-17T04:00:17.625Z,2.88
2022-09-17T04:01:19.792Z,3.40
2022-09-17T04:02:21.668Z,3.13
2022-09-17T04:03:24.533Z,3.00
2022-09-17T04:04:26.297Z,3.30
2022-09-17T04:05:27.940Z,3.20
2022-09-17T04:06:30.148Z,3.47
2022-09-17T04:07:32.010Z,3.45
2022-09-17T04:08:33.991Z,3.40
2022-09-17T04:09:35.861Z,3.55
2022-09-17T04:10:37.936Z,3.50
2022-09-17T04:11:39.854Z,3.50
2022-09-17T04:12:41.693Z,3.70
2022-09-17T04:13:44.285Z,4.00
2022-09-17T04:14:46.178Z,3.50
2022-09-17T04:15:48.473Z,4.03
2022-09-17T04:16:50.319Z,3.90
2022-09-17T04:17:55.815Z,3.80
2022-09-17T04:18:57.570Z,4.25
2022-09-17T04:19:59.483Z,4.40
2022-09-17T04:21:01.384Z,3.95
2022-09-17T04:22:03.079Z,4.00
2022-09-17T04:23:05.207Z,4.40
2022-09-17T04:24:07.025Z,4.63
2022-09-17T04:25:08.995Z,4.15
2022-09-17T04:26:11.143Z,4.80
2022-09-17T04:27:12.847Z,4.10
2022-09-17T04:28:14.520Z,4.25
2022-09-17T04:29:16.473Z,5.30
2022-09-17T04:30:18.657Z,5.07
2022-09-17T04:31:22.659Z,4.93
2022-09-17T04:32:24.605Z,4.80
2022-09-17T04:33:26.368Z,4.95
2022-09-17T04:34:28.606Z,4.97
2022-09-17T04:35:30.455Z,4.97
2022-09-17T04:36:32.186Z,5.32
2022-09-17T04:37:34.306Z,5.65
2022-09-17T04:38:36.250Z,5.15
2022-09-17T04:39:38.308Z,5.70
2022-09-17T04:40:42.301Z,4.97
2022-09-17T04:41:44.320Z,5.47
2022-09-17T04:42:46.502Z,5.28
2022-09-17T04:43:48.352Z,5.50
2022-09-17T04:44:50.213Z,5.32
2022-09-17T04:45:52.241Z,5.20
2022-09-17T04:46:54.195Z,5.50
2022-09-17T04:47:55.904Z,5.72
2022-09-17T04:48:57.573Z,5.22
2022-09-17T04:49:59.272Z,5.35
2022-09-17T04:51:01.105Z,5.57
2022-09-17T04:52:02.908Z,5.43
2022-09-17T04:53:05.042Z,5.32
2022-09-17T04:54:06.803Z,5.70
2022-09-17T04:55:09.409Z,5.55
2022-09-17T04:56:11.310Z,5.63
2022-09-17T04:57:13.144Z,6.03
2022-09-17T04:58:14.813Z,5.20
2022-09-17T04:59:16.610Z,5.20
2022-09-17T05:00:20.244Z,5.30
2022-09-17T05:01:22.094Z,5.47
2022-09-17T05:02:24.292Z,5.40
2022-09-17T05:03:26.358Z,5.00
2022-09-17T05:04:28.138Z,4.50
2022-09-17T05:05:30.053Z,4.95
2022-09-17T05:06:31.956Z,5.07
2022-09-17T05:07:33.696Z,5.13
2022-09-17T05:08:35.530Z,5.32
2022-09-17T05:09:37.335Z,4.35
2022-09-17T05:10:39.854Z,5.40
2022-09-17T05:11:42.020Z,5.10
2022-09-17T05:12:49.248Z,4.95
2022-09-17T05:13:51.051Z,4.85
2022-09-17T05:14:52.884Z,4.80
2022-09-17T05:15:56.862Z,4.55
2022-09-17T05:16:58.705Z,4.90
2022-09-17T05:18:00.902Z,4.55
2022-09-17T05:19:03.217Z,4.45
2022-09-17T05:20:05.413Z,4.65
2022-09-17T05:21:07.288Z,4.45
2022-09-17T05:22:09.354Z,4.32
2022-09-17T05:23:11.099Z,4.22
2022-09-17T05:24:12.805Z,4.32
2022-09-17T05:25:15.593Z,4.30
2022-09-17T05:26:17.539Z,4.10
2022-09-17T05:27:19.413Z,4.18
2022-09-17T05:28:21.222Z,4.05
2022-09-17T05:29:23.069Z,3.90
2022-09-17T05:30:24.779Z,3.90
2022-09-17T05:31:26.642Z,3.65
2022-09-17T05:32:28.502Z,3.63
2022-09-17T05:33:30.485Z,3.63
2022-09-17T05:34:32.969Z,3.60
2022-09-17T05:35:38.352Z,3.55
2022-09-17T05:36:40.197Z,3.47
2022-09-17T05:37:41.942Z,3.50
2022-09-17T05:38:43.849Z,3.60
2022-09-17T05:39:46.045Z,4.00
2022-09-17T05:40:49.114Z,3.22
2022-09-17T05:41:54.297Z,3.35
2022-09-17T05:43:04.671Z,3.17
2022-09-17T05:44:06.460Z,3.35
2022-09-17T05:45:08.991Z,3.30
2022-09-17T05:46:11.267Z,3.33
2022-09-17T05:47:13.097Z,3.58
2022-09-17T05:48:15.637Z,2.95
2022-09-17T05:49:17.314Z,3.40
2022-09-17T05:50:18.979Z,3.20
2022-09-17T05:51:20.643Z,3.60
2022-09-17T05:52:22.296Z,3.00
2022-09-17T05:53:24.361Z,2.83
2022-09-17T05:54:26.206Z,2.75
2022-09-17T05:55:28.024Z,2.97
2022-09-17T05:56:29.912Z,3.38
2022-09-17T05:57:31.751Z,3.03
2022-09-17T05:58:34.352Z,3.35
2022-09-17T05:59:36.256Z,2.88
2022-09-17T06:00:38.308Z,3.22
2022-09-17T06:01:40.395Z,3.25
2022-09-17T06:02:42.413Z,3.60
2022-09-17T06:03:44.142Z,2.58
2022-09-17T06:04:46.315Z,3.10
2022-09-17T06:05:56.093Z,3.45
2022-09-17T06:06:57.773Z,3.30
2022-09-17T06:07:59.605Z,3.35
2022-09-17T06:09:02.056Z,3.25
2022-09-17T06:10:06.168Z,3.33
2022-09-17T06:11:09.000Z,3.50
2022-09-17T06:12:11.689Z,3.55
2022-09-17T06:13:13.459Z,3.42
2022-09-17T06:14:15.571Z,3.47
2022-09-17T06:15:17.576Z,3.58
2022-09-17T06:16:20.850Z,3.92
2022-09-17T06:17:22.701Z,3.30
2022-09-17T06:18:24.541Z,3.88
2022-09-17T06:19:27.128Z,3.85
2022-09-17T06:20:29.206Z,3.90
2022-09-17T06:21:31.061Z,4.05
2022-09-17T06:22:33.016Z,3.90
2022-09-17T06:23:37.698Z,4.07
2022-09-17T06:24:39.642Z,4.07
2022-09-17T06:25:41.326Z,3.97
2022-09-17T06:26:43.042Z,3.88
2022-09-17T06:27:44.713Z,4.07
2022-09-17T06:28:46.737Z,4.50
2022-09-17T06:29:48.696Z,4.25
2022-09-17T06:30:52.918Z,5.38
2022-09-17T06:31:54.759Z,4.63
2022-09-17T06:32:59.224Z,3.90
2022-09-17T06:34:01.990Z,3.83
2022-09-17T06:35:03.833Z,4.05
2022-09-17T06:36:13.115Z,3.90
2022-09-17T06:37:15.518Z,3.70
2022-09-17T06:38:17.373Z,3.83
2022-09-17T06:39:19.280Z,3.65
2022-09-17T06:40:23.332Z,4.25
2022-09-17T06:41:25.081Z,4.22
2022-09-17T06:42:26.850Z,3.78
2022-09-17T06:43:28.624Z,5.05
2022-09-17T06:44:30.284Z,3.67
2022-09-17T06:45:32.176Z,4.03
2022-09-17T06:46:34.133Z,3.38
2022-09-17T06:47:35.924Z,3.70
2022-09-17T06:48:38.531Z,3.42
2022-09-17T06:49:40.492Z,3.20
2022-09-17T06:50:42.960Z,3.08
2022-09-17T06:51:45.121Z,3.67
2022-09-17T06:52:54.436Z,3.95
2022-09-17T06:53:56.191Z,3.50
2022-09-17T06:54:58.025Z,3.17
2022-09-17T06:56:06.020Z,2.40
2022-09-17T06:57:08.290Z,2.80
2022-09-17T06:58:09.940Z,2.50
2022-09-17T06:59:11.602Z,2.58
2022-09-17T07:00:15.252Z,2.60
2022-09-17T07:01:16.979Z,2.50
2022-09-17T07:02:18.932Z,2.85
2022-09-17T07:03:23.313Z,2.67
2022-09-17T07:04:25.229Z,2.63
2022-09-17T07:05:28.385Z,2.20
2022-09-17T07:06:30.384Z,2.78
2022-09-17T07:07:32.213Z,2.97
2022-09-17T07:08:36.937Z,2.88
2022-09-17T07:09:38.953Z,2.65
2022-09-17T07:10:40.825Z,2.75
2022-09-17T07:11:43.390Z,3.22
2022-09-17T07:12:50.143Z,8.57
2022-09-17T07:13:52.371Z,4.03
2022-09-17T07:14:54.065Z,4.47
2022-09-17T07:16:01.183Z,3.45
2022-09-17T07:17:03.554Z,3.65
2022-09-17T07:18:11.719Z,3.25
2022-09-17T07:19:17.130Z,2.65
2022-09-17T07:20:19.379Z,2.08
2022-09-17T07:21:21.214Z,2.95
2022-09-17T07:22:27.461Z,2.22
2022-09-17T07:23:34.712Z,2.50
2022-09-17T07:24:40.747Z,2.70
2022-09-17T07:25:43.313Z,2.50
2022-09-17T07:26:45.264Z,2.67
2022-09-17T07:27:47.396Z,2.03
2022-09-17T07:28:49.312Z,2.80
2022-09-17T07:29:51.169Z,2.33
2022-09-17T07:30:54.244Z,2.63
2022-09-17T07:31:58.407Z,3.00
2022-09-17T07:33:02.228Z,2.45
2022-09-17T07:34:04.229Z,3.75
2022-09-17T07:35:06.686Z,3.50
2022-09-17T07:36:11.785Z,3.15
2022-09-17T07:37:13.573Z,2.33
2022-09-17T07:38:18.461Z,2.70
2022-09-17T07:39:20.350Z,2.47
2022-09-17T07:40:22.385Z,2.33
2022-09-17T07:41:24.728Z,3.00
2022-09-17T07:42:27.600Z,2.63
2022-09-17T07:43:32.689Z,2.50
2022-09-17T07:44:34.668Z,3.40
2022-09-17T07:45:36.555Z,3.75
2022-09-17T07:46:38.488Z,5.93
2022-09-17T07:47:41.800Z,2.55
2022-09-17T07:48:43.804Z,3.10
2022-09-17T07:49:45.919Z,2.22
2022-09-17T07:50:48.499Z,2.40
2022-09-17T07:51:50.418Z,2.00
2022-09-17T07:52:52.480Z,1.80
2022-09-17T07:53:56.127Z,1.92
2022-09-17T07:54:58.462Z,1.90
2022-09-17T07:56:00.926Z,2.25
2022-09-17T07:57:03.364Z,1.58
2022-09-17T07:58:05.428Z,2.00
2022-09-17T07:59:07.452Z,2.00
2022-09-17T08:00:09.976Z,1.95
2022-09-17T08:01:15.870Z,1.90
2022-09-17T08:02:23.197Z,1.80
2022-09-17T08:03:26.514Z,1.40
2022-09-17T08:04:28.376Z,1.85
2022-09-17T08:05:32.435Z,1.40
2022-09-17T08:06:38.089Z,2.15
2022-09-17T08:07:40.333Z,1.77
2022-09-17T08:08:42.650Z,1.60
2022-09-17T08:09:44.719Z,1.80
2022-09-17T08:10:46.600Z,2.05
2022-09-17T08:11:56.707Z,2.10
2022-09-17T08:12:59.838Z,1.40
2022-09-17T08:14:02.149Z,1.65
2022-09-17T08:15:04.315Z,1.60
2022-09-17T08:16:08.725Z,1.70
2022-09-17T08:17:10.703Z,2.00
2022-09-17T08:18:17.073Z,1.90
2022-09-17T08:19:19.206Z,2.40
2022-09-17T08:20:21.549Z,2.30
2022-09-17T08:21:24.691Z,2.65
2022-09-17T08:22:27.115Z,1.58
2022-09-17T08:23:30.710Z,2.03
2022-09-17T08:24:32.971Z,2.00
2022-09-17T08:25:34.895Z,1.63
2022-09-17T08:26:36.805Z,1.67
2022-09-17T08:27:41.714Z,2.03
2022-09-17T08:28:49.417Z,1.85
2022-09-17T08:29:51.674Z,1.75
2022-09-17T08:31:01.627Z,1.90
2022-09-17T08:32:04.730Z,2.13
2022-09-17T08:33:06.990Z,1.73
2022-09-17T08:34:09.810Z,1.65
2022-09-17T08:35:11.987Z,1.30
2022-09-17T08:36:15.573Z,1.85
2022-09-17T08:37:17.607Z,1.20
2022-09-17T08:38:20.627Z,1.35
2022-09-17T08:39:22.695Z,1.52
2022-09-17T08:40:28.008Z,1.52
2022-09-17T08:42:03.369Z,1.20
2022-09-17T08:43:21.113Z,1.40
2022-09-17T08:44:33.844Z,1.40
2022-09-17T08:45:37.708Z,1.35
2022-09-17T08:46:54.436Z,1.02
2022-09-17T08:48:14.366Z,1.00
2022-09-17T08:49:37.827Z,1.63
2022-09-17T08:50:42.128Z,1.30
2022-09-17T08:52:04.234Z,1.40
2022-09-17T08:53:34.429Z,1.30
2022-09-17T08:54:51.411Z,1.45
2022-09-17T08:56:04.032Z,1.33
2022-09-17T08:57:40.208Z,1.20
2022-09-17T08:59:00.714Z,0.95
2022-09-17T09:00:14.735Z,0.90
2022-09-17T09:01:34.827Z,1.20
2022-09-17T09:03:10.325Z,1.02
2022-09-17T09:04:32.955Z,0.68
2022-09-17T09:05:44.396Z,0.80
2022-09-17T09:07:06.788Z,1.35
2022-09-17T09:08:57.675Z,0.90
2022-09-17T09:10:23.452Z,0.75
2022-09-17T09:11:28.196Z,1.95
2022-09-17T09:12:34.016Z,1.67
2022-09-17T09:13:50.044Z,1.00
2022-09-17T09:15:00.123Z,1.20
2022-09-17T09:16:07.333Z,1.20
2022-09-17T09:17:10.779Z,1.20
2022-09-17T09:18:25.123Z,1.30
2022-09-17T09:19:47.429Z,0.80
2022-09-17T09:20:55.696Z,0.80
2022-09-17T09:22:42.763Z,0.80
2022-09-17T09:23:58.848Z,1.80
2022-09-17T09:25:09.442Z,0.70
2022-09-17T09:26:18.213Z,0.80
2022-09-17T09:27:30.065Z,0.85
2022-09-17T09:28:42.492Z,0.90
2022-09-17T09:30:06.706Z,0.65
2022-09-17T09:31:17.680Z,1.00
2022-09-17T09:32:38.351Z,0.82
2022-09-17T09:33:47.735Z,1.00
2022-09-17T09:34:50.545Z,1.10
2022-09-17T09:35:52.468Z,0.63
2022-09-17T09:37:11.850Z,0.80
2022-09-17T09:38:31.577Z,0.95
2022-09-17T09:39:41.362Z,0.90
2022-09-17T09:41:02.924Z,0.80
2022-09-17T09:42:19.427Z,0.70
2022-09-17T09:44:04.005Z,1.20
2022-09-17T09:45:38.749Z,0.50
2022-09-17T09:47:13.335Z,0.60
2022-09-17T09:48:35.560Z,0.70
2022-09-17T09:50:01.532Z,0.60
2022-09-17T09:51:12.082Z,0.75
2022-09-17T09:52:37.671Z,0.90
2022-09-17T09:54:07.466Z,0.60
2022-09-17T09:55:43.610Z,0.77
2022-09-17T09:57:03.519Z,1.05
2022-09-17T09:58:35.952Z,0.80
2022-09-17T09:59:37.856Z,1.02
2022-09-17T10:00:42.767Z,0.70
2022-09-17T10:01:45.384Z,1.10
2022-09-17T10:02:48.413Z,1.27
2022-09-17T10:03:54.020Z,0.93
2022-09-17T10:05:08.262Z,1.20
2022-09-17T10:06:11.993Z,0.63
2022-09-17T10:07:13.811Z,0.68
2022-09-17T10:08:16.258Z,0.80
2022-09-17T10:09:21.550Z,0.82
2022-09-17T10:10:23.269Z,1.30
2022-09-17T10:11:27.408Z,0.90
2022-09-17T10:12:29.097Z,0.98
2022-09-17T10:13:35.797Z,1.00
2022-09-17T10:14:39.177Z,0.55
2022-09-17T10:15:40.884Z,0.80
2022-09-17T10:16:42.828Z,0.60
2022-09-17T10:17:44.909Z,0.80
2022-09-17T10:18:48.377Z,0.70
2022-09-17T10:20:07.225Z,0.85
2022-09-17T10:21:23.003Z,0.90
2022-09-17T10:22:29.476Z,2.25
2022-09-17T10:23:35.628Z,2.40
2022-09-17T10:24:39.295Z,1.40
2022-09-17T10:25:43.712Z,1.50
2022-09-17T10:26:45.493Z,1.30
2022-09-17T10:27:47.893Z,1.05
2022-09-17T10:28:53.473Z,2.10
2022-09-17T10:30:10.431Z,1.75
2022-09-17T10:31:12.297Z,1.00
2022-09-17T10:32:17.319Z,1.08
2022-09-17T10:33:25.376Z,1.23
2022-09-17T10:34:30.183Z,1.15
2022-09-17T10:35:32.161Z,1.15
2022-09-17T10:36:45.764Z,1.10
2022-09-17T10:37:49.833Z,1.20
2022-09-17T10:38:51.524Z,1.10
2022-09-17T10:39:53.631Z,1.77
2022-09-17T10:41:10.636Z,1.20
2022-09-17T10:42:19.928Z,1.40
2022-09-17T10:43:23.195Z,0.70
2022-09-17T10:44:27.611Z,1.25
2022-09-17T10:45:31.677Z,1.80
2022-09-17T10:46:34.286Z,1.48
2022-09-17T10:47:42.821Z,1.60
2022-09-17T10:48:52.368Z,1.60
2022-09-17T10:50:01.564Z,1.20
2022-09-17T10:51:03.619Z,1.60
2022-09-17T10:52:26.122Z,2.40
2022-09-17T10:53:28.104Z,2.45
2022-09-17T10:55:02.623Z,1.35
2022-09-17T10:56:20.238Z,1.00
2022-09-17T10:57:55.138Z,1.35
2022-09-17T10:59:20.619Z,2.17
2022-09-17T11:00:24.516Z,2.85
2022-09-17T11:02:05.104Z,0.80
2022-09-17T11:03:19.786Z,1.23
2022-09-17T11:04:37.151Z,0.70
2022-09-17T11:05:44.540Z,1.52
2022-09-17T11:06:52.408Z,2.53
2022-09-17T11:08:08.733Z,1.52
2022-09-17T11:09:52.349Z,0.93
2022-09-17T11:11:08.484Z,1.08
2022-09-17T11:12:48.595Z,0.90
2022-09-17T11:14:14.776Z,1.13
2022-09-17T11:15:40.612Z,1.30
2022-09-17T11:17:00.729Z,1.70
2022-09-17T11:18:33.295Z,1.48
2022-09-17T11:20:14.324Z,1.48
2022-09-17T11:21:37.121Z,1.03
2022-09-17T11:23:02.836Z,1.08
2022-09-17T11:24:27.493Z,1.10
2022-09-17T11:25:49.535Z,1.60
2022-09-17T11:27:06.403Z,1.30
2022-09-17T11:28:37.770Z,0.77
2022-09-17T11:29:58.000Z,1.02
2022-09-17T11:31:29.228Z,0.75
2022-09-17T11:32:31.168Z,0.90
2022-09-17T11:34:06.184Z,0.90
2022-09-17T11:35:30.262Z,1.20
2022-09-17T11:36:58.288Z,1.02
2022-09-17T11:38:13.314Z,0.90
2022-09-17T11:39:23.533Z,0.90
2022-09-17T11:40:36.054Z,1.03
2022-09-17T11:41:50.590Z,0.70
2022-09-17T11:43:02.802Z,0.80
2022-09-17T11:44:16.680Z,1.00
2022-09-17T11:45:49.742Z,0.70
2022-09-17T11:46:59.413Z,0.70
2022-09-17T11:48:21.989Z,0.82
2022-09-17T11:49:39.842Z,0.50
2022-09-17T11:50:46.709Z,0.98
2022-09-17T11:52:01.352Z,0.60
2022-09-17T11:53:24.273Z,0.57
2022-09-17T11:55:03.245Z,1.00
2022-09-17T11:56:22.771Z,0.60
2022-09-17T11:57:35.666Z,0.70
2022-09-17T11:58:54.478Z,1.10
2022-09-17T12:00:08.370Z,0.95
2022-09-17T12:01:19.221Z,0.65
2022-09-17T12:02:38.552Z,0.90
2022-09-17T12:04:35.291Z,0.75
2022-09-17T12:05:45.025Z,0.60
2022-09-17T12:06:57.432Z,0.50
2022-09-17T12:08:22.763Z,0.57
2022-09-17T12:09:28.787Z,0.70
2022-09-17T12:10:38.796Z,1.05
2022-09-17T12:11:48.513Z,0.88
2022-09-17T12:12:59.875Z,0.70
2022-09-17T12:14:08.444Z,0.60
2022-09-17T12:15:22.056Z,0.52
2022-09-17T12:16:29.114Z,0.45
2022-09-17T12:17:41.300Z,0.60
2022-09-17T12:18:47.502Z,0.50
2022-09-17T12:19:59.243Z,0.80
2022-09-17T12:21:04.958Z,1.00
2022-09-17T12:22:13.427Z,1.05
2022-09-17T12:23:23.468Z,0.93
2022-09-17T12:24:29.134Z,0.98
2022-09-17T12:25:38.222Z,0.73
2022-09-17T12:26:52.385Z,0.98
2022-09-17T12:28:00.521Z,1.20
2022-09-17T12:29:28.260Z,0.85
2022-09-17T12:30:45.349Z,0.88
2022-09-17T12:32:13.331Z,1.10
2022-09-17T12:33:30.619Z,1.98
2022-09-17T12:34:45.009Z,2.42
2022-09-17T12:36:17.775Z,1.00
2022-09-17T12:37:34.180Z,1.33
2022-09-17T12:39:03.223Z,1.17
2022-09-17T12:40:47.610Z,1.35
2022-09-17T12:42:23.870Z,1.20
2022-09-17T12:43:46.105Z,2.05
2022-09-17T12:45:20.578Z,1.58
2022-09-17T12:47:07.914Z,1.15
2022-09-17T12:48:30.732Z,1.08
2022-09-17T12:50:01.337Z,0.70
2022-09-17T12:51:24.608Z,1.15
2022-09-17T12:52:54.097Z,1.30
2022-09-17T12:54:20.537Z,1.70
2022-09-17T12:55:34.039Z,1.83
2022-09-17T12:56:57.555Z,1.35
2022-09-17T12:58:11.714Z,1.20
2022-09-17T12:59:19.388Z,1.17
2022-09-17T13:00:21.672Z,1.23
2022-09-17T13:01:35.000Z,1.75
2022-09-17T13:03:10.153Z,1.92
2022-09-17T13:04:50.163Z,1.63
2022-09-17T13:07:17.944Z,1.73
2022-09-17T13:08:47.477Z,1.17
2022-09-17T13:10:20.070Z,1.50
2022-09-17T13:11:46.082Z,1.30
2022-09-17T13:13:12.957Z,0.93
2022-09-17T13:14:41.785Z,0.80
2022-09-17T13:16:04.203Z,0.40
2022-09-17T13:17:18.012Z,0.60
2022-09-17T13:19:15.010Z,0.50
2022-09-17T13:20:34.158Z,0.55
2022-09-17T13:21:49.749Z,0.30
2022-09-17T13:22:54.336Z,0.28
2022-09-17T13:23:56.284Z,0.40
2022-09-17T13:25:11.641Z,0.40
2022-09-17T13:26:17.231Z,0.20
2022-09-17T13:27:26.195Z,0.43
2022-09-17T13:28:47.698Z,0.32
2022-09-17T13:29:55.905Z,0.40
2022-09-17T13:31:03.221Z,0.43
2022-09-17T13:32:04.984Z,1.00
2022-09-17T13:33:06.994Z,0.70
2022-09-17T13:34:17.634Z,0.95
2022-09-17T13:35:22.239Z,0.80
2022-09-17T13:36:53.730Z,1.23
2022-09-17T13:37:57.544Z,1.20
2022-09-17T13:39:01.161Z,1.10
2022-09-17T13:40:04.555Z,0.98
2022-09-17T13:41:21.742Z,0.75
2022-09-17T13:42:27.830Z,1.10
2022-09-17T13:43:29.880Z,1.10
2022-09-17T13:44:35.150Z,1.00
2022-09-17T13:45:58.815Z,0.90
2022-09-17T13:47:29.131Z,0.85
2022-09-17T13:48:32.791Z,1.10
2022-09-17T13:49:34.584Z,1.30
2022-09-17T13:50:42.123Z,1.30
2022-09-17T13:51:45.954Z,1.42
2022-09-17T13:52:50.280Z,1.20
2022-09-17T13:53:54.519Z,1.30
2022-09-17T13:54:56.848Z,1.20
2022-09-17T13:56:01.982Z,1.30
2022-09-17T13:57:15.027Z,1.17
2022-09-17T13:58:22.159Z,1.63
2022-09-17T13:59:27.857Z,1.40
2022-09-17T14:00:51.404Z,1.40
2022-09-17T14:02:02.724Z,1.70
2022-09-17T14:03:38.715Z,1.70
2022-09-17T14:04:50.010Z,1.83
2022-09-17T14:05:51.725Z,1.40
2022-09-17T14:06:53.907Z,1.45
2022-09-17T14:08:12.865Z,1.80
2022-09-17T14:09:53.015Z,1.50
2022-09-17T14:10:56.326Z,1.30
2022-09-17T14:11:58.182Z,1.60
2022-09-17T14:13:24.660Z,1.40
2022-09-17T14:14:41.460Z,1.40
2022-09-17T14:15:43.555Z,1.30
2022-09-17T14:16:50.470Z,1.40
2022-09-17T14:17:53.501Z,1.10
2022-09-17T14:18:59.045Z,1.70
2022-09-17T14:20:02.063Z,1.35
2022-09-17T14:21:09.854Z,1.63
2022-09-17T14:22:15.787Z,1.65
2022-09-17T14:23:17.547Z,1.70
2022-09-17T14:24:23.439Z,1.80
2022-09-17T14:25:57.787Z,2.28
2022-09-17T14:27:28.888Z,1.45
2022-09-17T14:28:41.322Z,2.47
2022-09-17T14:30:04.500Z,2.22
2022-09-17T14:31:17.958Z,2.72
2022-09-17T14:32:32.244Z,2.10
2022-09-17T14:33:34.477Z,1.85
2022-09-17T14:34:36.531Z,2.35
2022-09-17T14:35:44.397Z,2.10
2022-09-17T14:36:46.269Z,2.00
2022-09-17T14:38:02.445Z,2.45
2022-09-17T14:39:10.541Z,1.90
2022-09-17T14:40:17.991Z,1.60
2022-09-17T14:41:24.161Z,1.50
2022-09-17T14:42:34.207Z,1.77
2022-09-17T14:43:45.415Z,1.67
2022-09-17T14:45:56.478Z,1.88
2022-09-17T14:47:14.211Z,1.70
2022-09-17T14:48:34.366Z,1.70
2022-09-17T14:49:41.356Z,2.22
2022-09-17T14:50:43.831Z,1.80
2022-09-17T14:51:46.277Z,1.85
2022-09-17T14:52:50.858Z,2.30
2022-09-17T14:54:05.860Z,1.90
2022-09-17T14:55:31.200Z,2.10
2022-09-17T14:56:34.938Z,2.78
2022-09-17T14:57:37.665Z,1.95
2022-09-17T14:58:46.407Z,2.00
2022-09-17T15:00:00.720Z,1.98
2022-09-17T15:01:05.118Z,2.17
2022-09-17T15:02:35.840Z,1.73
2022-09-17T15:03:37.876Z,2.47
2022-09-17T15:04:43.897Z,2.03
2022-09-17T15:05:50.460Z,2.25
2022-09-17T15:06:52.440Z,3.13
2022-09-17T15:08:07.440Z,2.67
2022-09-17T15:09:17.384Z,2.00
2022-09-17T15:10:22.147Z,2.35
2022-09-17T15:11:23.824Z,1.90
2022-09-17T15:12:29.554Z,1.60
2022-09-17T15:13:38.708Z,1.80
2022-09-17T15:14:40.397Z,1.88
2022-09-17T15:15:55.682Z,2.08
2022-09-17T15:17:01.881Z,2.30
2022-09-17T15:18:04.398Z,1.95
2022-09-17T15:19:06.335Z,2.25
2022-09-17T15:20:16.680Z,2.00
2022-09-17T15:21:43.893Z,2.25
2022-09-17T15:22:52.607Z,2.08
2022-09-17T15:24:00.953Z,2.17